Terminal Aerodrome Forecast
Issued by NWS Twin Cities, MN

Home | Current Version | Previous Version | Text Only | Print | Product List | Glossary Off
Versions: 1 2 3 4 5 6 7 8 9 10 11 12 13 14 15 16

230
FTUS43 KMPX 230520
TAFEAU
TAF
KEAU 230520Z 2306/2406 03004KT P6SM VCSH SCT040 BKN060
     FM231000 03004KT P6SM BKN050
     FM231600 02008KT P6SM VCSH OVC035 PROB30 2317/2323 -SHRA BKN025
     FM240100 02007KT P6SM BKN040=

USA.gov is the U.S. government's official web portal to all federal, state and local government web resources and services.